TimeCET,TemperatureF,Dew PointF,Humidity,Sea Level PressureIn,VisibilityMPH,Wind Direction,Wind SpeedMPH,Gust SpeedMPH,PrecipitationIn,Events,Conditions,WindDirDegrees,DateUTC
12:25 AM,26.6,24.8,93,29.95,0.3,South,2.3,-,N/A,Fog,Light Freezing Fog,190,2012-12-02 23:25:00
12:55 AM,24.8,23.0,93,29.95,-9999.0,South,3.5,-,N/A,Fog,Light Freezing Fog,170,2012-12-02 23:55:00
1:25 AM,26.6,24.8,93,29.95,0.4,South,3.5,-,N/A,Fog,Light Freezing Fog,170,2012-12-03 00:25:00
1:55 AM,30.2,28.4,93,29.92,-9999.0,SSE,5.8,-,N/A,,Mist,150,2012-12-03 00:55:00
2:25 AM,30.2,28.4,93,29.92,0.8,South,6.9,-,N/A,,Mostly Cloudy,170,2012-12-03 01:25:00
2:55 AM,30.2,30.2,100,29.92,0.3,South,6.9,-,N/A,Fog,Light Freezing Fog,180,2012-12-03 01:55:00
3:25 AM,30.2,28.4,93,29.92,0.3,South,5.8,-,N/A,Fog,Light Freezing Fog,180,2012-12-03 02:25:00
3:55 AM,30.2,30.2,100,29.92,0.6,South,6.9,-,N/A,Fog,Light Freezing Fog,180,2012-12-03 02:55:00
4:00 AM,30,29,96,29.92,0,South,6.7,,,Fog,Fog,180,2012-12-03 03:00:00
4:25 AM,30.2,28.4,93,29.89,1.7,South,6.9,-,N/A,,Mist,170,2012-12-03 03:25:00
4:55 AM,30.2,30.2,100,29.89,0.7,South,8.1,-,N/A,,Overcast,190,2012-12-03 03:55:00
5:25 AM,30.2,30.2,100,29.89,0.4,SSW,8.1,-,N/A,Fog,Light Freezing Fog,200,2012-12-03 04:25:00
5:55 AM,30.2,30.2,100,29.89,0.5,SSW,10.4,-,N/A,Fog,Light Freezing Fog,200,2012-12-03 04:55:00
6:25 AM,32.0,30.2,93,29.86,0.8,SSW,9.2,-,N/A,,Overcast,200,2012-12-03 05:25:00
6:55 AM,32.0,30.2,93,29.86,1.5,SSW,9.2,-,N/A,,Overcast,200,2012-12-03 05:55:00
7:00 AM,32,31,95,29.88,2,South,8.9,,,Fog,Fog,190,2012-12-03 06:00:00
7:25 AM,32.0,32.0,100,29.86,1.6,South,10.4,-,N/A,,Overcast,190,2012-12-03 06:25:00
7:55 AM,32.0,32.0,100,29.86,1.7,South,11.5,-,N/A,,Mostly Cloudy,190,2012-12-03 06:55:00
8:25 AM,32.0,32.0,100,29.83,-9999.0,South,12.7,-,N/A,,Overcast,190,2012-12-03 07:25:00
8:55 AM,33.8,32.0,93,29.83,-9999.0,South,11.5,-,N/A,,Partly Cloudy,190,2012-12-03 07:55:00
9:25 AM,33.8,32.0,93,29.80,3.1,South,9.2,-,N/A,,Mist,180,2012-12-03 08:25:00
9:55 AM,33.8,32.0,93,29.80,3.7,South,9.2,-,N/A,,Unknown,180,2012-12-03 08:55:00
10:00 AM,34,32,88,29.81,4,South,11.2,,,,Mist,180,2012-12-03 09:00:00
10:25 AM,33.8,32.0,93,29.80,5.0,South,11.5,-,N/A,,Unknown,180,2012-12-03 09:25:00
10:55 AM,33.8,32.0,93,29.77,6.2,South,15.0,-,N/A,,Unknown,190,2012-12-03 09:55:00
11:25 AM,33.8,32.0,93,29.77,6.2,South,11.5,-,N/A,,Overcast,190,2012-12-03 10:25:00
11:55 AM,33.8,32.0,93,29.74,5.6,SSW,11.5,-,N/A,,Overcast,200,2012-12-03 10:55:00
12:25 PM,35.6,32.0,87,29.74,6.2,South,11.5,-,N/A,,Overcast,190,2012-12-03 11:25:00
12:55 PM,35.6,33.8,93,29.71,6.2,South,15.0,-,N/A,,Light Drizzle,190,2012-12-03 11:55:00
1:00 PM,35,33,91,29.71,7,South,15.7,,,Rain,Light Drizzle,190,2012-12-03 12:00:00
1:25 PM,35.6,33.8,93,29.68,6.2,South,13.8,-,N/A,Rain,Light Rain,180,2012-12-03 12:25:00
1:55 PM,35.6,33.8,93,29.65,6.2,South,13.8,-,N/A,,Overcast,180,2012-12-03 12:55:00
2:25 PM,35.6,33.8,93,29.62,6.2,South,15.0,-,N/A,,Overcast,170,2012-12-03 13:25:00
2:55 PM,35.6,33.8,93,29.62,5.0,South,15.0,-,N/A,Rain,Light Rain,180,2012-12-03 13:55:00
3:25 PM,35.6,33.8,93,29.59,4.3,South,15.0,-,N/A,,Drizzle,180,2012-12-03 14:25:00
3:55 PM,35.6,33.8,93,29.56,-9999.0,South,13.8,-,N/A,Rain,Light Rain,180,2012-12-03 14:55:00
4:00 PM,35,33,91,29.56,3,South,13.4,,,Snow,Heavy Snow,180,2012-12-03 15:00:00
4:25 PM,35.6,33.8,93,29.56,3.7,South,12.7,-,N/A,Rain,Light Rain,170,2012-12-03 15:25:00
4:55 PM,35.6,33.8,93,29.53,5.0,South,11.5,-,N/A,Rain,Light Rain,170,2012-12-03 15:55:00
5:25 PM,35.6,33.8,93,29.50,-9999.0,South,12.7,-,N/A,,Drizzle,180,2012-12-03 16:25:00
5:55 PM,35.6,35.6,100,29.50,3.7,South,13.8,-,N/A,,Overcast,190,2012-12-03 16:55:00
6:25 PM,37.4,35.6,93,29.47,1.4,SSW,12.7,-,N/A,,Heavy Drizzle,200,2012-12-03 17:25:00
6:55 PM,39.2,39.2,100,29.47,3.7,SSW,13.8,-,N/A,,Overcast,210,2012-12-03 17:55:00
7:00 PM,40,39,96,29.48,4,WSW,15.7,,,Rain,Rain,240,2012-12-03 18:00:00
7:25 PM,41.0,39.2,93,29.44,3.1,SW,15.0,-,N/A,,Mostly Cloudy,230,2012-12-03 18:25:00
7:55 PM,42.8,41.0,93,29.44,4.3,WSW,15.0,-,N/A,,Overcast,240,2012-12-03 18:55:00
8:25 PM,42.8,41.0,93,29.44,3.7,WSW,12.7,-,N/A,Rain,Rain,240,2012-12-03 19:25:00
8:55 PM,42.8,41.0,93,29.44,6.2,West,12.7,-,N/A,,Mostly Cloudy,260,2012-12-03 19:55:00
9:25 PM,42.8,39.2,87,29.44,6.2,West,12.7,-,N/A,,Mostly Cloudy,270,2012-12-03 20:25:00
9:55 PM,41.0,37.4,87,29.44,6.2,SW,10.4,-,N/A,,Unknown,230,2012-12-03 20:55:00
10:00 PM,40,38,88,29.46,12,WSW,11.2,,,Rain,Rain,240,2012-12-03 21:00:00
10:25 PM,39.2,35.6,87,29.44,6.2,WSW,9.2,-,N/A,,Partly Cloudy,240,2012-12-03 21:25:00
10:55 PM,41.0,37.4,87,29.44,6.2,WSW,12.7,-,N/A,,Overcast,240,2012-12-03 21:55:00
11:25 PM,39.2,35.6,87,29.44,6.2,SW,11.5,-,N/A,,Partly Cloudy,230,2012-12-03 22:25:00
11:55 PM,39.2,37.4,93,29.44,6.2,WSW,12.7,-,N/A,,Unknown,240,2012-12-03 22:55:00